sensor_id;sensor_type;location;lat;lon;timestamp;temperature;humidity
7362;DHT22;3721;44.490;11.220;2022-09-12T00:01:58;22.30;83.60
7362;DHT22;3721;44.490;11.220;2022-09-12T00:04:24;22.30;83.70
7362;DHT22;3721;44.490;11.220;2022-09-12T00:06:52;22.40;83.90
7362;DHT22;3721;44.490;11.220;2022-09-12T00:09:18;22.30;83.70
7362;DHT22;3721;44.490;11.220;2022-09-12T00:11:45;22.40;83.80
7362;DHT22;3721;44.490;11.220;2022-09-12T00:14:14;22.40;83.80
7362;DHT22;3721;44.490;11.220;2022-09-12T00:16:40;22.40;84.00
7362;DHT22;3721;44.490;11.220;2022-09-12T00:19:07;22.40;83.90
7362;DHT22;3721;44.490;11.220;2022-09-12T00:21:34;22.40;83.90
7362;DHT22;3721;44.490;11.220;2022-09-12T00:24:00;22.30;83.80
7362;DHT22;3721;44.490;11.220;2022-09-12T00:26:26;22.30;83.90
7362;DHT22;3721;44.490;11.220;2022-09-12T00:28:52;22.30;84.00
7362;DHT22;3721;44.490;11.220;2022-09-12T00:31:20;22.30;83.90
7362;DHT22;3721;44.490;11.220;2022-09-12T00:33:48;22.30;83.90
7362;DHT22;3721;44.490;11.220;2022-09-12T00:36:17;22.20;83.90
7362;DHT22;3721;44.490;11.220;2022-09-12T00:38:44;22.20;84.10
7362;DHT22;3721;44.490;11.220;2022-09-12T00:41:31;22.10;84.10
7362;DHT22;3721;44.490;11.220;2022-09-12T00:43:59;22.10;84.20
7362;DHT22;3721;44.490;11.220;2022-09-12T00:46:43;22.00;84.00
7362;DHT22;3721;44.490;11.220;2022-09-12T00:51:38;21.80;84.30
7362;DHT22;3721;44.490;11.220;2022-09-12T00:54:13;21.80;84.50
7362;DHT22;3721;44.490;11.220;2022-09-12T00:56:42;21.80;84.60
7362;DHT22;3721;44.490;11.220;2022-09-12T00:59:17;21.80;84.80
7362;DHT22;3721;44.490;11.220;2022-09-12T01:01:45;21.80;84.80
7362;DHT22;3721;44.490;11.220;2022-09-12T01:04:12;21.80;84.70
7362;DHT22;3721;44.490;11.220;2022-09-12T01:06:41;21.80;84.80
7362;DHT22;3721;44.490;11.220;2022-09-12T01:09:13;21.80;84.90
7362;DHT22;3721;44.490;11.220;2022-09-12T01:11:40;21.90;85.00
7362;DHT22;3721;44.490;11.220;2022-09-12T01:14:07;21.90;85.10
7362;DHT22;3721;44.490;11.220;2022-09-12T01:16:36;21.90;85.00
7362;DHT22;3721;44.490;11.220;2022-09-12T01:46:42;21.70;85.20
7362;DHT22;3721;44.490;11.220;2022-09-12T01:49:23;21.60;85.10
7362;DHT22;3721;44.490;11.220;2022-09-12T01:52:09;21.60;85.20
7362;DHT22;3721;44.490;11.220;2022-09-12T01:55:07;21.60;85.20
7362;DHT22;3721;44.490;11.220;2022-09-12T01:57:56;21.50;85.30
7362;DHT22;3721;44.490;11.220;2022-09-12T02:00:23;21.50;85.40
7362;DHT22;3721;44.490;11.220;2022-09-12T02:02:59;21.50;85.40
7362;DHT22;3721;44.490;11.220;2022-09-12T02:05:33;21.50;85.50
7362;DHT22;3721;44.490;11.220;2022-09-12T02:08:05;21.40;85.60
7362;DHT22;3721;44.490;11.220;2022-09-12T02:13:22;21.40;85.80
7362;DHT22;3721;44.490;11.220;2022-09-12T02:15:54;21.40;85.90
7362;DHT22;3721;44.490;11.220;2022-09-12T02:18:25;21.40;86.10
7362;DHT22;3721;44.490;11.220;2022-09-12T02:20:55;21.40;86.10
7362;DHT22;3721;44.490;11.220;2022-09-12T02:23:25;21.40;86.10
7362;DHT22;3721;44.490;11.220;2022-09-12T02:25:56;21.30;86.00
7362;DHT22;3721;44.490;11.220;2022-09-12T02:28:29;21.40;86.10
7362;DHT22;3721;44.490;11.220;2022-09-12T02:31:36;21.30;85.90
7362;DHT22;3721;44.490;11.220;2022-09-12T02:34:13;21.30;86.00
7362;DHT22;3721;44.490;11.220;2022-09-12T02:39:36;21.20;86.10
7362;DHT22;3721;44.490;11.220;2022-09-12T02:42:02;21.20;86.10
7362;DHT22;3721;44.490;11.220;2022-09-12T02:44:29;21.10;86.00
7362;DHT22;3721;44.490;11.220;2022-09-12T02:47:17;21.00;86.20
7362;DHT22;3721;44.490;11.220;2022-09-12T02:49:44;21.00;86.50
7362;DHT22;3721;44.490;11.220;2022-09-12T02:52:10;21.00;86.60
7362;DHT22;3721;44.490;11.220;2022-09-12T02:54:36;21.00;86.70
7362;DHT22;3721;44.490;11.220;2022-09-12T02:57:02;21.00;86.70
7362;DHT22;3721;44.490;11.220;2022-09-12T02:59:30;21.00;86.70
7362;DHT22;3721;44.490;11.220;2022-09-12T03:02:14;20.90;86.80
7362;DHT22;3721;44.490;11.220;2022-09-12T03:24:25;20.80;87.20
7362;DHT22;3721;44.490;11.220;2022-09-12T03:29:39;20.60;87.20
7362;DHT22;3721;44.490;11.220;2022-09-12T03:32:06;20.60;87.30
7362;DHT22;3721;44.490;11.220;2022-09-12T03:34:32;20.60;87.50
7362;DHT22;3721;44.490;11.220;2022-09-12T03:36:58;20.60;87.60
7362;DHT22;3721;44.490;11.220;2022-09-12T03:39:24;20.60;87.60
7362;DHT22;3721;44.490;11.220;2022-09-12T03:41:51;20.60;87.70
7362;DHT22;3721;44.490;11.220;2022-09-12T03:44:17;20.60;87.70
7362;DHT22;3721;44.490;11.220;2022-09-12T03:46:43;20.60;87.70
7362;DHT22;3721;44.490;11.220;2022-09-12T03:49:09;20.60;87.80
7362;DHT22;3721;44.490;11.220;2022-09-12T03:51:36;20.60;87.80
7362;DHT22;3721;44.490;11.220;2022-09-12T03:54:02;20.60;88.00
7362;DHT22;3721;44.490;11.220;2022-09-12T03:56:28;20.60;88.10
7362;DHT22;3721;44.490;11.220;2022-09-12T03:58:54;20.60;88.10
7362;DHT22;3721;44.490;11.220;2022-09-12T04:01:20;20.60;92.30
7362;DHT22;3721;44.490;11.220;2022-09-12T04:03:48;20.60;96.20
7362;DHT22;3721;44.490;11.220;2022-09-12T04:06:17;20.60;96.70
7362;DHT22;3721;44.490;11.220;2022-09-12T04:08:45;20.60;97.20
7362;DHT22;3721;44.490;11.220;2022-09-12T04:11:13;20.60;97.00
7362;DHT22;3721;44.490;11.220;2022-09-12T04:13:42;20.50;96.50
7362;DHT22;3721;44.490;11.220;2022-09-12T04:16:08;20.50;95.00
7362;DHT22;3721;44.490;11.220;2022-09-12T04:18:35;20.50;95.10
7362;DHT22;3721;44.490;11.220;2022-09-12T04:21:05;20.40;95.50
7362;DHT22;3721;44.490;11.220;2022-09-12T04:23:32;20.50;95.50
7362;DHT22;3721;44.490;11.220;2022-09-12T04:25:59;20.40;95.40
7362;DHT22;3721;44.490;11.220;2022-09-12T04:28:26;20.40;98.40
7362;DHT22;3721;44.490;11.220;2022-09-12T04:30:54;20.40;97.90
7362;DHT22;3721;44.490;11.220;2022-09-12T04:33:20;20.30;98.00
7362;DHT22;3721;44.490;11.220;2022-09-12T04:35:46;20.40;97.80
7362;DHT22;3721;44.490;11.220;2022-09-12T04:38:13;20.30;97.80
7362;DHT22;3721;44.490;11.220;2022-09-12T04:40:39;20.30;97.80
7362;DHT22;3721;44.490;11.220;2022-09-12T04:43:05;20.10;97.70
7362;DHT22;3721;44.490;11.220;2022-09-12T04:45:32;20.20;97.70
7362;DHT22;3721;44.490;11.220;2022-09-12T04:47:58;20.20;97.10
7362;DHT22;3721;44.490;11.220;2022-09-12T04:50:24;20.10;97.70
7362;DHT22;3721;44.490;11.220;2022-09-12T04:52:51;20.10;97.70
7362;DHT22;3721;44.490;11.220;2022-09-12T04:55:17;20.10;96.00
7362;DHT22;3721;44.490;11.220;2022-09-12T04:57:42;20.10;97.80
7362;DHT22;3721;44.490;11.220;2022-09-12T05:00:09;20.10;97.80
7362;DHT22;3721;44.490;11.220;2022-09-12T05:02:39;20.20;97.90
7362;DHT22;3721;44.490;11.220;2022-09-12T05:05:05;20.10;97.70
7362;DHT22;3721;44.490;11.220;2022-09-12T05:07:32;20.10;97.50
7362;DHT22;3721;44.490;11.220;2022-09-12T05:09:57;20.10;97.80
7362;DHT22;3721;44.490;11.220;2022-09-12T05:12:24;20.20;97.80
7362;DHT22;3721;44.490;11.220;2022-09-12T05:14:50;20.20;97.70
7362;DHT22;3721;44.490;11.220;2022-09-12T05:17:16;20.10;97.20
7362;DHT22;3721;44.490;11.220;2022-09-12T05:19:42;20.20;97.30
7362;DHT22;3721;44.490;11.220;2022-09-12T05:22:07;20.20;97.00
7362;DHT22;3721;44.490;11.220;2022-09-12T05:24:34;20.20;97.20
7362;DHT22;3721;44.490;11.220;2022-09-12T05:27:00;20.20;97.50
7362;DHT22;3721;44.490;11.220;2022-09-12T05:29:27;20.20;97.90
7362;DHT22;3721;44.490;11.220;2022-09-12T05:31:53;20.20;97.20
7362;DHT22;3721;44.490;11.220;2022-09-12T05:34:19;20.20;97.10
7362;DHT22;3721;44.490;11.220;2022-09-12T05:36:45;20.20;97.10
7362;DHT22;3721;44.490;11.220;2022-09-12T05:39:11;20.20;96.70
7362;DHT22;3721;44.490;11.220;2022-09-12T05:41:37;20.30;96.80
7362;DHT22;3721;44.490;11.220;2022-09-12T05:44:05;20.30;97.20
7362;DHT22;3721;44.490;11.220;2022-09-12T05:46:37;20.30;97.40
7362;DHT22;3721;44.490;11.220;2022-09-12T05:49:05;20.40;96.90
7362;DHT22;3721;44.490;11.220;2022-09-12T05:51:33;20.40;97.00
7362;DHT22;3721;44.490;11.220;2022-09-12T05:54:01;20.40;96.90
7362;DHT22;3721;44.490;11.220;2022-09-12T05:56:32;20.50;97.00
7362;DHT22;3721;44.490;11.220;2022-09-12T05:59:04;20.60;97.20
7362;DHT22;3721;44.490;11.220;2022-09-12T06:01:31;20.70;97.20
7362;DHT22;3721;44.490;11.220;2022-09-12T06:03:59;20.90;97.30
7362;DHT22;3721;44.490;11.220;2022-09-12T06:06:26;20.80;97.80
7362;DHT22;3721;44.490;11.220;2022-09-12T06:08:57;20.90;98.10
7362;DHT22;3721;44.490;11.220;2022-09-12T06:11:26;21.00;98.90
7362;DHT22;3721;44.490;11.220;2022-09-12T06:13:52;21.20;99.20
7362;DHT22;3721;44.490;11.220;2022-09-12T06:16:20;21.30;98.80
7362;DHT22;3721;44.490;11.220;2022-09-12T06:18:48;21.30;99.00
7362;DHT22;3721;44.490;11.220;2022-09-12T06:21:14;21.40;99.10
7362;DHT22;3721;44.490;11.220;2022-09-12T06:23:40;21.40;99.00
7362;DHT22;3721;44.490;11.220;2022-09-12T06:26:08;21.50;99.80
7362;DHT22;3721;44.490;11.220;2022-09-12T06:28:36;21.60;99.90
7362;DHT22;3721;44.490;11.220;2022-09-12T06:31:07;21.70;99.90
7362;DHT22;3721;44.490;11.220;2022-09-12T06:33:35;21.80;99.20
7362;DHT22;3721;44.490;11.220;2022-09-12T06:36:12;22.00;99.20
7362;DHT22;3721;44.490;11.220;2022-09-12T06:38:40;22.00;99.00
7362;DHT22;3721;44.490;11.220;2022-09-12T06:41:08;22.10;99.00
7362;DHT22;3721;44.490;11.220;2022-09-12T06:43:36;22.20;99.10
7362;DHT22;3721;44.490;11.220;2022-09-12T06:46:02;22.30;98.80
7362;DHT22;3721;44.490;11.220;2022-09-12T06:48:28;22.40;98.90
7362;DHT22;3721;44.490;11.220;2022-09-12T06:50:58;22.60;99.20
7362;DHT22;3721;44.490;11.220;2022-09-12T06:53:25;22.70;99.90
7362;DHT22;3721;44.490;11.220;2022-09-12T06:56:06;22.80;94.80
7362;DHT22;3721;44.490;11.220;2022-09-12T06:58:34;23.00;90.20
7362;DHT22;3721;44.490;11.220;2022-09-12T07:01:21;23.10;90.00
7362;DHT22;3721;44.490;11.220;2022-09-12T07:03:49;23.20;89.70
7362;DHT22;3721;44.490;11.220;2022-09-12T07:06:17;23.30;89.70
7362;DHT22;3721;44.490;11.220;2022-09-12T07:08:43;23.40;89.40
7362;DHT22;3721;44.490;11.220;2022-09-12T07:11:21;23.50;88.90
7362;DHT22;3721;44.490;11.220;2022-09-12T07:13:50;23.50;88.40
7362;DHT22;3721;44.490;11.220;2022-09-12T07:16:17;23.60;88.20
7362;DHT22;3721;44.490;11.220;2022-09-12T07:18:43;23.60;87.90
7362;DHT22;3721;44.490;11.220;2022-09-12T07:21:12;23.60;88.00
7362;DHT22;3721;44.490;11.220;2022-09-12T07:23:39;23.70;87.70
7362;DHT22;3721;44.490;11.220;2022-09-12T07:26:08;23.70;87.30
7362;DHT22;3721;44.490;11.220;2022-09-12T07:28:35;23.80;88.20
7362;DHT22;3721;44.490;11.220;2022-09-12T07:31:09;23.80;87.10
7362;DHT22;3721;44.490;11.220;2022-09-12T07:33:36;23.10;86.40
7362;DHT22;3721;44.490;11.220;2022-09-12T07:36:04;23.90;87.20
7362;DHT22;3721;44.490;11.220;2022-09-12T07:38:30;24.00;87.10
7362;DHT22;3721;44.490;11.220;2022-09-12T07:40:56;24.00;86.90
7362;DHT22;3721;44.490;11.220;2022-09-12T07:43:23;24.00;86.70
7362;DHT22;3721;44.490;11.220;2022-09-12T07:45:54;24.00;86.80
7362;DHT22;3721;44.490;11.220;2022-09-12T07:48:20;24.00;87.20
7362;DHT22;3721;44.490;11.220;2022-09-12T07:50:45;24.10;86.90
7362;DHT22;3721;44.490;11.220;2022-09-12T07:53:11;24.10;86.70
7362;DHT22;3721;44.490;11.220;2022-09-12T07:55:37;24.10;86.80
7362;DHT22;3721;44.490;11.220;2022-09-12T07:58:03;24.20;87.20
7362;DHT22;3721;44.490;11.220;2022-09-12T08:00:28;24.20;86.20
7362;DHT22;3721;44.490;11.220;2022-09-12T08:03:00;24.20;86.10
7362;DHT22;3721;44.490;11.220;2022-09-12T08:05:27;24.20;86.00
7362;DHT22;3721;44.490;11.220;2022-09-12T08:07:54;24.30;86.10
7362;DHT22;3721;44.490;11.220;2022-09-12T08:10:20;24.30;85.90
7362;DHT22;3721;44.490;11.220;2022-09-12T08:12:46;24.40;85.90
7362;DHT22;3721;44.490;11.220;2022-09-12T08:15:11;24.50;85.90
7362;DHT22;3721;44.490;11.220;2022-09-12T08:17:37;24.50;85.50
7362;DHT22;3721;44.490;11.220;2022-09-12T08:20:04;24.50;85.40
7362;DHT22;3721;44.490;11.220;2022-09-12T08:22:30;24.60;85.30
7362;DHT22;3721;44.490;11.220;2022-09-12T08:24:56;24.60;85.60
7362;DHT22;3721;44.490;11.220;2022-09-12T08:27:21;24.80;85.70
7362;DHT22;3721;44.490;11.220;2022-09-12T08:29:47;24.90;85.90
7362;DHT22;3721;44.490;11.220;2022-09-12T08:32:13;25.00;85.90
7362;DHT22;3721;44.490;11.220;2022-09-12T08:34:39;25.10;85.60
7362;DHT22;3721;44.490;11.220;2022-09-12T08:37:04;25.20;85.40
7362;DHT22;3721;44.490;11.220;2022-09-12T08:39:30;25.30;85.50
7362;DHT22;3721;44.490;11.220;2022-09-12T08:42:00;25.30;85.10
7362;DHT22;3721;44.490;11.220;2022-09-12T08:47:19;25.50;84.00
7362;DHT22;3721;44.490;11.220;2022-09-12T08:50:15;25.50;84.10
7362;DHT22;3721;44.490;11.220;2022-09-12T08:52:50;25.60;84.00
7362;DHT22;3721;44.490;11.220;2022-09-12T08:55:31;25.60;83.90
7362;DHT22;3721;44.490;11.220;2022-09-12T08:58:01;25.60;83.90
7362;DHT22;3721;44.490;11.220;2022-09-12T09:01:08;25.70;83.50
7362;DHT22;3721;44.490;11.220;2022-09-12T09:03:58;25.80;83.50
7362;DHT22;3721;44.490;11.220;2022-09-12T09:14:41;26.10;83.40
7362;DHT22;3721;44.490;11.220;2022-09-12T09:23:18;26.20;82.40
7362;DHT22;3721;44.490;11.220;2022-09-12T09:25:50;26.30;82.30
7362;DHT22;3721;44.490;11.220;2022-09-12T09:28:24;26.30;82.20
7362;DHT22;3721;44.490;11.220;2022-09-12T09:30:53;26.30;82.00
7362;DHT22;3721;44.490;11.220;2022-09-12T09:33:25;26.30;82.20
7362;DHT22;3721;44.490;11.220;2022-09-12T09:38:59;26.60;81.70
7362;DHT22;3721;44.490;11.220;2022-09-12T09:44:29;26.70;81.50
7362;DHT22;3721;44.490;11.220;2022-09-12T09:46:57;26.80;80.40
7362;DHT22;3721;44.490;11.220;2022-09-12T09:49:26;26.80;80.10
7362;DHT22;3721;44.490;11.220;2022-09-12T09:51:53;26.80;79.30
7362;DHT22;3721;44.490;11.220;2022-09-12T09:54:35;26.80;78.40
7362;DHT22;3721;44.490;11.220;2022-09-12T09:57:02;26.90;78.30
7362;DHT22;3721;44.490;11.220;2022-09-12T09:59:31;26.90;78.20
7362;DHT22;3721;44.490;11.220;2022-09-12T10:01:58;27.00;78.10
7362;DHT22;3721;44.490;11.220;2022-09-12T10:04:33;27.00;77.90
7362;DHT22;3721;44.490;11.220;2022-09-12T10:07:02;27.10;77.20
7362;DHT22;3721;44.490;11.220;2022-09-12T10:09:35;27.20;76.60
7362;DHT22;3721;44.490;11.220;2022-09-12T10:12:27;27.20;76.10
7362;DHT22;3721;44.490;11.220;2022-09-12T10:14:58;27.20;76.30
7362;DHT22;3721;44.490;11.220;2022-09-12T10:17:39;27.30;75.80
7362;DHT22;3721;44.490;11.220;2022-09-12T10:22:55;27.20;75.20
7362;DHT22;3721;44.490;11.220;2022-09-12T10:25:23;27.20;75.10
7362;DHT22;3721;44.490;11.220;2022-09-12T10:27:58;27.30;75.00
7362;DHT22;3721;44.490;11.220;2022-09-12T10:30:25;27.30;74.40
7362;DHT22;3721;44.490;11.220;2022-09-12T10:32:58;27.30;74.00
7362;DHT22;3721;44.490;11.220;2022-09-12T10:35:42;27.30;74.70
7362;DHT22;3721;44.490;11.220;2022-09-12T10:38:26;27.40;75.00
7362;DHT22;3721;44.490;11.220;2022-09-12T10:41:00;27.50;74.80
7362;DHT22;3721;44.490;11.220;2022-09-12T10:43:34;27.50;74.70
7362;DHT22;3721;44.490;11.220;2022-09-12T10:48:44;27.70;74.30
7362;DHT22;3721;44.490;11.220;2022-09-12T10:53:58;27.70;73.90
7362;DHT22;3721;44.490;11.220;2022-09-12T10:59:30;27.70;73.20
7362;DHT22;3721;44.490;11.220;2022-09-12T11:02:17;27.70;74.40
7362;DHT22;3721;44.490;11.220;2022-09-12T11:07:45;27.80;74.70
7362;DHT22;3721;44.490;11.220;2022-09-12T11:18:51;27.90;72.70
7362;DHT22;3721;44.490;11.220;2022-09-12T11:21:37;28.00;72.20
7362;DHT22;3721;44.490;11.220;2022-09-12T11:27:23;28.00;73.70
7362;DHT22;3721;44.490;11.220;2022-09-12T11:29:49;28.00;73.80
7362;DHT22;3721;44.490;11.220;2022-09-12T11:43:40;27.90;72.30
7362;DHT22;3721;44.490;11.220;2022-09-12T11:46:22;27.90;73.40
7362;DHT22;3721;44.490;11.220;2022-09-12T11:48:56;27.90;73.10
7362;DHT22;3721;44.490;11.220;2022-09-12T11:51:39;27.90;73.20
7362;DHT22;3721;44.490;11.220;2022-09-12T11:54:20;27.90;73.10
7362;DHT22;3721;44.490;11.220;2022-09-12T11:56:52;27.90;72.80
7362;DHT22;3721;44.490;11.220;2022-09-12T12:02:24;27.90;71.70
7362;DHT22;3721;44.490;11.220;2022-09-12T12:05:21;27.90;71.00
7362;DHT22;3721;44.490;11.220;2022-09-12T12:07:54;27.90;70.00
7362;DHT22;3721;44.490;11.220;2022-09-12T12:10:35;28.00;70.30
7362;DHT22;3721;44.490;11.220;2022-09-12T12:13:15;28.00;69.60
7362;DHT22;3721;44.490;11.220;2022-09-12T12:15:47;28.10;70.50
7362;DHT22;3721;44.490;11.220;2022-09-12T12:18:18;28.50;70.50
7362;DHT22;3721;44.490;11.220;2022-09-12T12:20:44;28.00;70.30
7362;DHT22;3721;44.490;11.220;2022-09-12T12:23:33;28.10;70.10
7362;DHT22;3721;44.490;11.220;2022-09-12T12:26:01;28.10;68.60
7362;DHT22;3721;44.490;11.220;2022-09-12T12:31:15;28.40;67.20
7362;DHT22;3721;44.490;11.220;2022-09-12T12:36:27;28.50;66.60
7362;DHT22;3721;44.490;11.220;2022-09-12T12:38:53;28.50;66.50
7362;DHT22;3721;44.490;11.220;2022-09-12T12:43:47;28.60;67.20
7362;DHT22;3721;44.490;11.220;2022-09-12T12:46:17;28.60;68.40
7362;DHT22;3721;44.490;11.220;2022-09-12T12:48:50;28.60;69.30
7362;DHT22;3721;44.490;11.220;2022-09-12T12:51:28;28.70;69.60
7362;DHT22;3721;44.490;11.220;2022-09-12T12:53:56;28.70;70.40
7362;DHT22;3721;44.490;11.220;2022-09-12T12:56:34;28.70;70.10
7362;DHT22;3721;44.490;11.220;2022-09-12T12:59:20;28.70;68.70
7362;DHT22;3721;44.490;11.220;2022-09-12T13:01:50;28.70;69.20
7362;DHT22;3721;44.490;11.220;2022-09-12T13:04:20;28.70;68.20
7362;DHT22;3721;44.490;11.220;2022-09-12T13:12:03;28.60;67.80
7362;DHT22;3721;44.490;11.220;2022-09-12T13:14:56;28.60;68.00
7362;DHT22;3721;44.490;11.220;2022-09-12T13:17:33;28.60;68.00
7362;DHT22;3721;44.490;11.220;2022-09-12T13:20:25;28.60;68.60
7362;DHT22;3721;44.490;11.220;2022-09-12T13:22:53;28.60;67.20
7362;DHT22;3721;44.490;11.220;2022-09-12T13:25:21;28.60;68.00
7362;DHT22;3721;44.490;11.220;2022-09-12T13:31:02;28.60;66.60
7362;DHT22;3721;44.490;11.220;2022-09-12T13:33:41;28.60;65.80
7362;DHT22;3721;44.490;11.220;2022-09-12T13:44:40;28.60;65.60
7362;DHT22;3721;44.490;11.220;2022-09-12T13:47:09;28.60;66.50
7362;DHT22;3721;44.490;11.220;2022-09-12T13:49:39;28.60;68.90
7362;DHT22;3721;44.490;11.220;2022-09-12T13:52:17;28.60;68.40
7362;DHT22;3721;44.490;11.220;2022-09-12T13:54:47;28.60;68.50
7362;DHT22;3721;44.490;11.220;2022-09-12T13:57:34;28.70;68.70
7362;DHT22;3721;44.490;11.220;2022-09-12T14:00:15;28.70;68.20
7362;DHT22;3721;44.490;11.220;2022-09-12T14:02:45;28.70;67.50
7362;DHT22;3721;44.490;11.220;2022-09-12T14:05:21;28.70;67.10
7362;DHT22;3721;44.490;11.220;2022-09-12T14:08:00;28.70;68.10
7362;DHT22;3721;44.490;11.220;2022-09-12T14:10:36;28.70;68.10
7362;DHT22;3721;44.490;11.220;2022-09-12T14:13:08;28.60;68.10
7362;DHT22;3721;44.490;11.220;2022-09-12T14:15:37;28.70;69.40
7362;DHT22;3721;44.490;11.220;2022-09-12T14:18:05;28.70;68.70
7362;DHT22;3721;44.490;11.220;2022-09-12T14:20:35;28.70;68.50
7362;DHT22;3721;44.490;11.220;2022-09-12T14:23:41;28.80;68.60
7362;DHT22;3721;44.490;11.220;2022-09-12T14:26:10;28.80;68.50
7362;DHT22;3721;44.490;11.220;2022-09-12T14:28:40;28.80;67.60
7362;DHT22;3721;44.490;11.220;2022-09-12T14:31:23;28.70;66.40
7362;DHT22;3721;44.490;11.220;2022-09-12T14:36:47;28.70;66.60
7362;DHT22;3721;44.490;11.220;2022-09-12T14:39:41;28.60;66.40
7362;DHT22;3721;44.490;11.220;2022-09-12T14:42:20;28.60;66.60
7362;DHT22;3721;44.490;11.220;2022-09-12T14:44:57;28.70;66.10
7362;DHT22;3721;44.490;11.220;2022-09-12T14:47:27;28.80;66.60
7362;DHT22;3721;44.490;11.220;2022-09-12T14:49:58;28.80;65.90
7362;DHT22;3721;44.490;11.220;2022-09-12T14:52:32;28.80;65.50
7362;DHT22;3721;44.490;11.220;2022-09-12T14:55:28;28.90;65.20
7362;DHT22;3721;44.490;11.220;2022-09-12T15:06:29;29.00;66.30
7362;DHT22;3721;44.490;11.220;2022-09-12T15:08:57;28.90;66.30
7362;DHT22;3721;44.490;11.220;2022-09-12T15:11:24;28.90;65.70
7362;DHT22;3721;44.490;11.220;2022-09-12T15:13:51;28.90;65.70
7362;DHT22;3721;44.490;11.220;2022-09-12T15:16:17;28.90;66.30
7362;DHT22;3721;44.490;11.220;2022-09-12T15:18:42;28.90;66.80
7362;DHT22;3721;44.490;11.220;2022-09-12T15:21:12;28.90;67.10
7362;DHT22;3721;44.490;11.220;2022-09-12T15:23:47;28.90;66.10
7362;DHT22;3721;44.490;11.220;2022-09-12T15:26:16;28.90;66.60
7362;DHT22;3721;44.490;11.220;2022-09-12T15:28:43;28.90;65.60
7362;DHT22;3721;44.490;11.220;2022-09-12T15:33:48;28.80;64.40
7362;DHT22;3721;44.490;11.220;2022-09-12T15:36:16;28.80;65.70
7362;DHT22;3721;44.490;11.220;2022-09-12T15:38:43;28.80;65.50
7362;DHT22;3721;44.490;11.220;2022-09-12T15:41:25;28.80;65.60
7362;DHT22;3721;44.490;11.220;2022-09-12T15:43:53;28.80;65.30
7362;DHT22;3721;44.490;11.220;2022-09-12T15:46:19;28.80;65.80
7362;DHT22;3721;44.490;11.220;2022-09-12T15:48:45;28.80;66.50
7362;DHT22;3721;44.490;11.220;2022-09-12T15:51:18;28.80;66.60
7362;DHT22;3721;44.490;11.220;2022-09-12T15:53:45;28.80;66.30
7362;DHT22;3721;44.490;11.220;2022-09-12T15:56:16;28.80;66.60
7362;DHT22;3721;44.490;11.220;2022-09-12T15:58:42;28.80;66.40
7362;DHT22;3721;44.490;11.220;2022-09-12T16:01:12;28.80;66.20
7362;DHT22;3721;44.490;11.220;2022-09-12T16:03:38;28.70;65.60
7362;DHT22;3721;44.490;11.220;2022-09-12T16:06:04;28.70;64.70
7362;DHT22;3721;44.490;11.220;2022-09-12T16:08:32;28.70;65.60
7362;DHT22;3721;44.490;11.220;2022-09-12T16:11:12;28.70;66.20
7362;DHT22;3721;44.490;11.220;2022-09-12T16:13:42;28.70;66.60
7362;DHT22;3721;44.490;11.220;2022-09-12T16:16:08;28.70;67.10
7362;DHT22;3721;44.490;11.220;2022-09-12T16:18:37;28.70;66.40
7362;DHT22;3721;44.490;11.220;2022-09-12T16:21:03;28.60;67.10
7362;DHT22;3721;44.490;11.220;2022-09-12T16:23:29;28.70;67.00
7362;DHT22;3721;44.490;11.220;2022-09-12T16:26:00;28.70;65.40
7362;DHT22;3721;44.490;11.220;2022-09-12T16:28:27;28.70;64.30
7362;DHT22;3721;44.490;11.220;2022-09-12T16:30:57;28.70;64.60
7362;DHT22;3721;44.490;11.220;2022-09-12T16:33:24;28.70;64.90
7362;DHT22;3721;44.490;11.220;2022-09-12T16:35:50;28.70;63.90
7362;DHT22;3721;44.490;11.220;2022-09-12T16:38:20;28.70;64.40
7362;DHT22;3721;44.490;11.220;2022-09-12T16:40:46;28.70;65.40
7362;DHT22;3721;44.490;11.220;2022-09-12T16:43:11;28.70;65.00
7362;DHT22;3721;44.490;11.220;2022-09-12T16:45:39;28.70;65.70
7362;DHT22;3721;44.490;11.220;2022-09-12T16:48:04;28.70;65.40
7362;DHT22;3721;44.490;11.220;2022-09-12T16:50:30;28.70;65.20
7362;DHT22;3721;44.490;11.220;2022-09-12T16:52:56;28.70;64.30
7362;DHT22;3721;44.490;11.220;2022-09-12T16:55:23;28.60;63.90
7362;DHT22;3721;44.490;11.220;2022-09-12T16:57:48;28.60;63.60
7362;DHT22;3721;44.490;11.220;2022-09-12T17:00:14;28.60;63.20
7362;DHT22;3721;44.490;11.220;2022-09-12T17:02:40;28.50;63.20
7362;DHT22;3721;44.490;11.220;2022-09-12T17:05:06;28.50;62.90
7362;DHT22;3721;44.490;11.220;2022-09-12T17:07:32;28.40;63.00
7362;DHT22;3721;44.490;11.220;2022-09-12T17:09:59;28.30;63.00
7362;DHT22;3721;44.490;11.220;2022-09-12T17:12:24;28.30;63.10
7362;DHT22;3721;44.490;11.220;2022-09-12T17:14:50;28.20;63.20
7362;DHT22;3721;44.490;11.220;2022-09-12T17:17:16;28.10;63.40
7362;DHT22;3721;44.490;11.220;2022-09-12T17:19:42;28.10;63.40
7362;DHT22;3721;44.490;11.220;2022-09-12T17:22:08;28.00;63.30
7362;DHT22;3721;44.490;11.220;2022-09-12T17:24:34;27.90;63.10
7362;DHT22;3721;44.490;11.220;2022-09-12T17:27:00;27.90;63.00
7362;DHT22;3721;44.490;11.220;2022-09-12T17:29:26;27.80;63.00
7362;DHT22;3721;44.490;11.220;2022-09-12T17:31:51;27.80;63.40
7362;DHT22;3721;44.490;11.220;2022-09-12T17:34:19;27.80;63.40
7362;DHT22;3721;44.490;11.220;2022-09-12T17:36:45;27.80;63.60
7362;DHT22;3721;44.490;11.220;2022-09-12T17:39:13;27.70;63.80
7362;DHT22;3721;44.490;11.220;2022-09-12T17:41:39;27.60;63.60
7362;DHT22;3721;44.490;11.220;2022-09-12T17:44:08;27.60;63.90
7362;DHT22;3721;44.490;11.220;2022-09-12T17:46:37;27.50;63.90
7362;DHT22;3721;44.490;11.220;2022-09-12T17:49:05;27.50;64.00
7362;DHT22;3721;44.490;11.220;2022-09-12T17:51:31;27.50;64.10
7362;DHT22;3721;44.490;11.220;2022-09-12T17:53:58;27.50;64.30
7362;DHT22;3721;44.490;11.220;2022-09-12T17:56:24;27.50;64.60
7362;DHT22;3721;44.490;11.220;2022-09-12T17:58:53;27.50;64.90
7362;DHT22;3721;44.490;11.220;2022-09-12T18:01:19;27.40;65.10
7362;DHT22;3721;44.490;11.220;2022-09-12T18:04:02;27.40;65.40
7362;DHT22;3721;44.490;11.220;2022-09-12T18:06:30;27.40;65.70
7362;DHT22;3721;44.490;11.220;2022-09-12T18:09:04;27.30;65.90
7362;DHT22;3721;44.490;11.220;2022-09-12T18:11:30;27.30;66.30
7362;DHT22;3721;44.490;11.220;2022-09-12T18:13:59;27.30;66.60
7362;DHT22;3721;44.490;11.220;2022-09-12T18:16:26;27.20;67.00
7362;DHT22;3721;44.490;11.220;2022-09-12T18:18:59;27.20;67.30
7362;DHT22;3721;44.490;11.220;2022-09-12T18:21:27;27.20;67.70
7362;DHT22;3721;44.490;11.220;2022-09-12T18:23:55;27.10;68.00
7362;DHT22;3721;44.490;11.220;2022-09-12T18:26:21;27.10;68.30
7362;DHT22;3721;44.490;11.220;2022-09-12T18:28:47;27.00;68.60
7362;DHT22;3721;44.490;11.220;2022-09-12T18:31:15;27.00;68.90
7362;DHT22;3721;44.490;11.220;2022-09-12T18:33:41;27.00;69.10
7362;DHT22;3721;44.490;11.220;2022-09-12T18:36:09;26.90;69.40
7362;DHT22;3721;44.490;11.220;2022-09-12T18:38:35;26.90;69.80
7362;DHT22;3721;44.490;11.220;2022-09-12T18:41:15;26.80;69.90
7362;DHT22;3721;44.490;11.220;2022-09-12T18:43:42;26.80;70.10
7362;DHT22;3721;44.490;11.220;2022-09-12T18:46:16;26.80;70.30